Time;durP1;ratioP1;P1;durP2;ratioP2;P2;SDS_P1;SDS_P2;PMS_P1;PMS_P2;Temp;Humidity;BMP_temperature;BMP_pressure;BME280_temperature;BME280_humidity;BME280_pressure;Samples;Min_cycle;Max_cycle;Signal;HPM_P1;HPM_P2
2023/05/05 00:00:28;;;;;;;5.87;5.20;;;;;;;20.42;42.93;95400.84;6035477;28;109101;-65
2023/05/05 00:03:34;;;;;;;5.67;5.17;;;;;;;20.37;42.88;95389.50;6040257;28;109094;-66
2023/05/05 00:06:37;;;;;;;8.80;5.40;;;;;;;20.40;42.69;95386.25;6050853;28;109363;-66
2023/05/05 00:09:40;;;;;;;5.83;5.20;;;;;;;20.43;42.75;95394.44;6030065;28;110275;-65
2023/05/05 00:12:43;;;;;;;5.10;4.70;;;;;;;20.41;42.64;95391.28;6039946;28;109502;-65
2023/05/05 00:15:50;;;;;;;5.63;5.03;;;;;;;20.35;42.83;95381.81;6040662;28;109012;-65
2023/05/05 00:18:53;;;;;;;5.87;5.27;;;;;;;20.39;42.81;95390.00;6039498;28;109122;-65
2023/05/05 00:21:56;;;;;;;5.37;4.97;;;;;;;20.39;42.93;95384.69;6030837;28;109696;-66
2023/05/05 00:24:59;;;;;;;6.63;5.30;;;;;;;20.37;42.77;95392.16;6039767;28;108941;-66
2023/05/05 00:28:03;;;;;;;6.07;5.03;;;;;;;20.39;42.85;95392.66;6040369;28;109355;-66
2023/05/05 00:31:07;;;;;;;5.13;4.63;;;;;;;20.39;42.75;95390.00;6035401;28;108817;-65
2023/05/05 00:34:10;;;;;;;5.13;4.73;;;;;;;20.30;42.82;95377.31;6035570;28;109050;-65
2023/05/05 00:37:13;;;;;;;4.63;4.23;;;;;;;20.32;42.53;95380.50;6039821;28;109003;-66
2023/05/05 00:40:17;;;;;;;5.63;5.13;;;;;;;20.33;42.82;95386.59;6040255;28;109340;-66
2023/05/05 00:43:20;;;;;;;5.63;4.80;;;;;;;20.35;42.72;95386.34;6029663;28;110167;-66
2023/05/05 00:46:27;;;;;;;5.03;4.60;;;;;;;20.37;42.70;95392.16;6038820;28;109173;-66
2023/05/05 00:49:30;;;;;;;5.80;5.40;;;;;;;20.37;42.69;95384.19;6039638;28;109253;-65
2023/05/05 00:52:34;;;;;;;4.80;4.40;;;;;;;20.27;42.65;95375.25;6039989;28;109006;-65
2023/05/05 00:55:37;;;;;;;5.70;5.20;;;;;;;20.31;42.60;95386.88;6025567;28;109973;-64
2023/05/05 00:58:42;;;;;;;5.10;4.67;;;;;;;20.34;42.65;95392.72;6035628;28;109080;-65
2023/05/05 01:01:47;;;;;;;5.37;4.83;;;;;;;20.33;42.76;95391.91;6039966;28;109091;-69
2023/05/05 01:04:50;;;;;;;5.33;4.83;;;;;;;20.28;42.57;95384.00;6036845;28;109697;-65
2023/05/05 01:08:06;;;;;;;4.70;4.30;;;;;;;20.30;42.74;95389.81;6041389;28;109811;-66
2023/05/05 01:11:17;;;;;;;6.50;5.17;;;;;;;20.30;42.80;95385.31;6059566;28;109205;-65
2023/05/05 01:14:28;;;;;;;5.10;4.70;;;;;;;20.31;42.62;95392.19;6038685;28;110105;-66
2023/05/05 01:17:38;;;;;;;4.43;4.13;;;;;;;20.31;42.62;95392.19;6030273;28;109241;-65
2023/05/05 01:20:48;;;;;;;5.23;4.83;;;;;;;20.30;42.69;95384.50;6036305;28;108589;-65
2023/05/05 01:24:32;;;;;;;5.10;4.70;;;;;;;20.22;42.61;95372.63;6040391;28;109157;-65
2023/05/05 01:27:50;;;;;;;4.47;4.07;;;;;;;20.25;42.48;95371.31;6034529;28;109698;-65
2023/05/05 01:31:21;;;;;;;5.70;4.40;;;;;;;20.25;42.63;95376.63;6043411;28;109125;-65
2023/05/05 01:34:32;;;;;;;4.77;4.27;;;;;;;20.19;42.65;95367.91;6039878;28;110224;-65
2023/05/05 01:37:41;;;;;;;4.60;4.20;;;;;;;20.24;42.49;95373.16;6038871;28;110025;-65
2023/05/05 01:40:48;;;;;;;4.83;4.40;;;;;;;20.24;42.56;95369.69;6028581;28;109049;-70
2023/05/05 01:43:54;;;;;;;5.40;5.00;;;;;;;20.18;42.51;95361.00;6041773;28;109669;-66
2023/05/05 01:46:59;;;;;;;4.50;4.10;;;;;;;20.22;42.60;95364.66;6038450;28;110540;-66
2023/05/05 01:50:06;;;;;;;5.87;5.37;;;;;;;20.24;42.44;95367.84;6037855;28;109648;-65
2023/05/05 01:53:11;;;;;;;4.83;4.40;;;;;;;20.21;42.68;95360.44;6037330;28;110816;-61
2023/05/05 01:56:15;;;;;;;4.83;4.43;;;;;;;20.24;42.59;95365.19;6062387;28;110161;-62
2023/05/05 01:59:20;;;;;;;4.73;4.33;;;;;;;20.13;42.45;95350.41;6050616;28;109286;-62
2023/05/05 02:02:28;;;;;;;5.23;4.83;;;;;;;20.21;42.56;95349.81;6024966;28;111564;-61
2023/05/05 02:05:33;;;;;;;4.80;4.40;;;;;;;20.21;42.11;95349.81;6039231;28;109545;-61
2023/05/05 02:08:38;;;;;;;4.43;4.13;;;;;;;20.21;42.48;95357.78;6052866;28;109131;-62
2023/05/05 02:11:42;;;;;;;4.43;4.13;;;;;;;20.20;42.47;95348.22;6042749;28;109110;-61
2023/05/05 02:14:46;;;;;;;4.30;4.00;;;;;;;20.21;42.46;95352.47;6029082;28;108839;-61
2023/05/05 02:17:51;;;;;;;4.90;4.50;;;;;;;20.22;42.54;95364.66;6039728;28;109476;-62
2023/05/05 02:20:56;;;;;;;4.63;4.30;;;;;;;20.22;42.43;95366.53;6047140;28;109078;-63
2023/05/05 02:23:59;;;;;;;5.40;5.00;;;;;;;20.19;42.37;95356.47;6036151;28;109159;-65
2023/05/05 02:27:06;;;;;;;5.10;4.70;;;;;;;20.21;42.36;95365.75;6034669;28;109071;-63
2023/05/05 02:30:11;;;;;;;5.30;4.83;;;;;;;20.22;42.31;95353.25;6045255;28;109430;-62
2023/05/05 02:33:19;;;;;;;5.50;5.00;;;;;;;20.20;42.46;95361.50;6039735;28;112149;-62
2023/05/05 02:36:28;;;;;;;4.30;3.90;;;;;;;20.18;42.51;95361.00;6028661;28;109187;-61
2023/05/05 02:39:35;;;;;;;4.43;4.10;;;;;;;20.17;42.33;95370.06;6044454;28;109112;-62
2023/05/05 02:42:41;;;;;;;4.90;4.40;;;;;;;20.22;42.24;95364.66;6080491;28;110095;-62
2023/05/05 02:45:44;;;;;;;4.43;4.07;;;;;;;20.17;42.40;95359.41;6034983;28;109220;-62
2023/05/05 02:48:47;;;;;;;4.90;4.50;;;;;;;20.16;42.34;95355.16;6029362;28;109615;-62
2023/05/05 02:51:52;;;;;;;4.57;4.27;;;;;;;20.18;42.28;95357.56;6041767;28;109063;-62
2023/05/05 02:54:55;;;;;;;4.20;3.90;;;;;;;20.15;42.39;95355.44;6044973;28;109012;-67
2023/05/05 02:58:05;;;;;;;4.90;4.40;;;;;;;20.16;42.41;95352.50;6043739;28;109089;-62
2023/05/05 03:01:18;;;;;;;4.30;3.90;;;;;;;20.18;41.78;95353.03;6051434;28;110070;-61
2023/05/05 03:04:26;;;;;;;4.77;4.37;;;;;;;20.19;42.19;95353.81;6037891;28;108996;-65
2023/05/05 03:07:38;;;;;;;4.77;4.37;;;;;;;20.18;42.23;95358.34;6036321;28;109197;-66
2023/05/05 03:10:47;;;;;;;4.97;4.47;;;;;;;20.15;42.38;95355.44;6028631;28;109709;-65
2023/05/05 03:13:56;;;;;;;4.30;3.97;;;;;;;20.10;42.25;95340.38;6043426;28;109044;-66
2023/05/05 03:17:01;;;;;;;4.93;4.43;;;;;;;20.16;42.15;95347.19;6043668;28;109284;-66
2023/05/05 03:20:06;;;;;;;4.67;4.33;;;;;;;20.16;42.20;95351.72;6041717;28;108834;-65
2023/05/05 03:23:13;;;;;;;4.70;4.30;;;;;;;20.16;42.03;95355.16;6038436;28;109108;-65
2023/05/05 03:26:17;;;;;;;4.87;4.33;;;;;;;20.19;42.26;95361.78;6034183;28;109271;-66
2023/05/05 03:29:20;;;;;;;4.73;4.33;;;;;;;20.20;42.03;95358.84;6040648;28;109071;-65
2023/05/05 03:32:24;;;;;;;38.93;10.33;;;;;;;20.22;42.80;95348.72;6038910;28;109503;-64
2023/05/05 03:35:27;;;;;;;19.27;13.03;;;;;;;20.26;42.33;95355.06;6031421;28;110331;-64
2023/05/05 03:38:31;;;;;;;14.23;11.50;;;;;;;20.21;42.37;95354.31;6037245;28;109253;-64
2023/05/05 03:41:35;;;;;;;19.63;11.00;;;;;;;20.19;42.63;95351.16;6039731;28;109400;-65
2023/05/05 03:44:38;;;;;;;19.53;9.77;;;;;;;20.20;42.52;95353.53;6027283;28;109291;-65
2023/05/05 03:47:41;;;;;;;13.20;9.70;;;;;;;20.22;42.79;95355.91;6038669;28;109246;-65
2023/05/05 03:50:45;;;;;;;14.97;9.57;;;;;;;20.17;42.64;95359.41;6036149;28;109316;-64
2023/05/05 03:53:49;;;;;;;27.00;11.03;;;;;;;20.18;42.28;95355.69;6038067;28;109534;-63
2023/05/05 03:56:52;;;;;;;153.83;26.07;;;;;;;20.14;43.04;95359.97;6047082;28;109227;-65
2023/05/05 03:59:55;;;;;;;40.77;14.83;;;;;;;20.20;42.40;95356.19;6037212;28;109216;-64
2023/05/05 04:02:58;;;;;;;33.07;12.60;;;;;;;20.21;42.57;95367.59;6037233;28;109256;-64
2023/05/05 04:06:02;;;;;;;29.37;15.93;;;;;;;20.21;42.34;95359.63;6034086;28;109052;-68
2023/05/05 04:09:06;;;;;;;28.20;13.27;;;;;;;20.33;43.75;95362.69;6026908;28;110569;-63
2023/05/05 04:12:09;;;;;;;24.13;11.40;;;;;;;20.28;42.85;95350.25;6035574;28;109202;-63
2023/05/05 04:15:12;;;;;;;19.50;9.40;;;;;;;20.38;42.94;95364.50;6044655;28;109111;-67
2023/05/05 04:18:15;;;;;;;63.37;16.23;;;;;;;20.24;42.96;95356.41;6040933;28;109022;-68
2023/05/05 04:21:18;;;;;;;19.63;9.10;;;;;;;20.31;42.86;95368.28;6038187;28;109163;-68
2023/05/05 04:24:24;;;;;;;11.17;6.10;;;;;;;20.17;41.52;95370.06;6041069;28;109011;-68
2023/05/05 04:27:29;;;;;;;17.33;6.50;;;;;;;19.75;42.44;95354.06;6040527;28;109303;-65
2023/05/05 04:30:32;;;;;;;16.17;6.13;;;;;;;19.70;42.64;95355.72;6029944;28;109034;-67
2023/05/05 04:33:35;;;;;;;5.67;5.17;;;;;;;19.71;42.51;95373.22;6040917;28;110301;-66
2023/05/05 04:36:38;;;;;;;9.03;5.53;;;;;;;19.69;42.28;95385.22;6038517;28;109023;-66
2023/05/05 04:39:43;;;;;;;11.23;5.87;;;;;;;19.71;42.32;95393.69;6017376;29;108784;-66
2023/05/05 04:42:46;;;;;;;7.40;5.00;;;;;;;19.63;42.32;95392.41;6006870;28;110085;-67
2023/05/05 04:45:52;;;;;;;7.40;5.90;;;;;;;19.59;42.31;95393.25;6016544;28;109180;-66
2023/05/05 04:48:55;;;;;;;5.70;5.10;;;;;;;19.56;42.43;95391.97;6017804;28;109268;-66
2023/05/05 04:51:59;;;;;;;6.33;5.43;;;;;;;19.57;42.35;95393.53;6012788;28;109305;-64
2023/05/05 04:55:04;;;;;;;5.87;5.37;;;;;;;19.47;42.40;95384.88;6011533;28;109044;-66
2023/05/05 04:58:07;;;;;;;6.00;5.40;;;;;;;19.51;42.50;95394.69;6016249;29;111917;-65
2023/05/05 05:01:10;;;;;;;5.93;5.33;;;;;;;19.52;42.60;95398.91;6016805;29;108814;-66
2023/05/05 05:04:17;;;;;;;5.60;5.10;;;;;;;19.51;42.45;95394.69;6007606;28;109199;-64
2023/05/05 05:07:20;;;;;;;5.87;4.93;;;;;;;19.47;42.48;95403.44;6017216;29;110061;-65
2023/05/05 05:10:24;;;;;;;5.93;5.50;;;;;;;19.42;42.62;95404.31;6016912;28;109022;-65
2023/05/05 05:13:27;;;;;;;5.93;5.40;;;;;;;19.40;42.58;95412.50;6016825;28;109112;-66
2023/05/05 05:16:30;;;;;;;5.57;5.07;;;;;;;19.37;42.60;95399.81;6006287;28;109459;-65
2023/05/05 05:19:34;;;;;;;8.03;5.80;;;;;;;19.39;42.75;95388.91;6017229;28;108795;-65
2023/05/05 05:22:37;;;;;;;10.97;6.03;;;;;;;19.45;42.65;95403.72;6016531;28;108869;-65
2023/05/05 05:25:42;;;;;;;9.90;4.90;;;;;;;19.39;42.61;95405.63;6017289;28;109254;-62
2023/05/05 05:28:45;;;;;;;5.67;5.03;;;;;;;19.36;42.92;95408.06;6006977;28;109358;-60
2023/05/05 05:31:48;;;;;;;6.60;4.97;;;;;;;19.33;42.87;95409.41;6015522;28;108794;-62
2023/05/05 05:34:52;;;;;;;5.23;4.73;;;;;;;19.27;42.86;95401.75;6016834;28;109056;-63
2023/05/05 05:37:55;;;;;;;5.17;4.27;;;;;;;19.36;42.84;95408.84;6009674;28;109094;-62
2023/05/05 05:41:00;;;;;;;5.00;4.60;;;;;;;19.38;42.75;95408.56;6014608;28;109446;-63
2023/05/05 05:44:03;;;;;;;6.53;4.50;;;;;;;19.33;43.07;95406.75;6016902;28;109525;-63
2023/05/05 05:47:06;;;;;;;5.27;4.80;;;;;;;19.37;43.01;95410.41;6016148;29;109102;-63
2023/05/05 05:50:09;;;;;;;8.30;4.60;;;;;;;19.36;43.23;95406.19;6006943;28;109253;-63
2023/05/05 05:53:12;;;;;;;6.73;4.90;;;;;;;19.37;42.87;95410.41;6016004;28;109060;-63
2023/05/05 05:56:17;;;;;;;5.10;4.67;;;;;;;19.39;42.77;95415.44;6016931;28;108816;-63
2023/05/05 05:59:20;;;;;;;5.33;4.60;;;;;;;19.41;42.79;95413.34;6015588;29;111333;-62
2023/05/05 06:02:25;;;;;;;4.87;4.37;;;;;;;19.40;42.95;95417.81;6006739;29;111203;-61
2023/05/05 06:05:28;;;;;;;4.77;4.37;;;;;;;19.35;43.14;95407.25;6016073;29;110521;-62
2023/05/05 06:08:31;;;;;;;4.20;3.80;;;;;;;19.36;42.80;95414.16;6016529;28;108971;-62
2023/05/05 06:11:36;;;;;;;4.07;3.77;;;;;;;19.38;42.78;95419.97;6012206;28;109220;-66
2023/05/05 06:14:40;;;;;;;6.33;3.83;;;;;;;19.60;44.36;95422.19;6011038;28;109125;-66
2023/05/05 06:17:43;;;;;;;4.00;3.60;;;;;;;19.69;44.34;95420.50;6016298;28;109118;-67
2023/05/05 06:20:49;;;;;;;4.97;3.90;;;;;;;19.70;43.51;95418.66;6016626;28;109007;-65
2023/05/05 06:23:52;;;;;;;3.57;3.27;;;;;;;19.75;44.20;95418.59;6007604;28;109629;-66
2023/05/05 06:26:58;;;;;;;3.67;3.37;;;;;;;19.78;43.95;95423.31;6016518;28;109087;-67
2023/05/05 06:30:01;;;;;;;4.00;3.30;;;;;;;19.67;42.73;95421.88;6015497;28;109320;-62
2023/05/05 06:33:04;;;;;;;6.60;3.23;;;;;;;19.62;42.98;95425.34;6015557;28;109203;-62
2023/05/05 06:36:07;;;;;;;3.43;3.17;;;;;;;19.55;42.82;95426.75;6006317;28;108673;-66
2023/05/05 06:39:13;;;;;;;12.33;4.50;;;;;;;19.76;43.49;95432.66;6038143;28;109948;-67
2023/05/05 06:42:19;;;;;;;6.40;3.77;;;;;;;19.91;44.12;95432.50;6038498;28;108982;-65
2023/05/05 06:45:22;;;;;;;5.23;3.10;;;;;;;19.87;44.71;95423.53;6038875;28;109173;-65
2023/05/05 06:48:25;;;;;;;3.50;3.20;;;;;;;19.98;43.91;95435.59;6028655;28;109271;-66
2023/05/05 06:51:28;;;;;;;3.23;2.93;;;;;;;19.99;43.48;95426.56;6039886;28;109403;-64
2023/05/05 06:54:32;;;;;;;7.93;3.40;;;;;;;20.02;42.45;95431.31;6039527;28;109072;-64
2023/05/05 06:57:36;;;;;;;4.50;2.97;;;;;;;20.00;42.62;95425.50;6031204;28;109139;-66
2023/05/05 07:00:40;;;;;;;6.13;3.10;;;;;;;20.05;42.09;95422.78;6038046;28;109142;-65
2023/05/05 07:03:43;;;;;;;3.70;3.03;;;;;;;20.09;42.17;95426.44;6038693;28;111787;-64
2023/05/05 07:06:46;;;;;;;4.77;3.00;;;;;;;20.06;42.32;95418.25;6039207;28;109058;-64
2023/05/05 07:09:49;;;;;;;6.63;3.03;;;;;;;20.09;42.35;95413.19;6028968;28;109532;-64
2023/05/05 07:12:54;;;;;;;3.60;2.93;;;;;;;20.07;42.30;95412.66;6039175;28;109317;-64
2023/05/05 07:15:57;;;;;;;3.00;2.70;;;;;;;20.13;42.04;95421.38;6039325;28;108996;-64
2023/05/05 07:19:04;;;;;;;3.70;3.20;;;;;;;20.13;42.26;95421.38;6038817;28;109288;-64
2023/05/05 07:22:07;;;;;;;3.37;3.07;;;;;;;20.07;42.35;95423.28;6029061;28;110366;-60
2023/05/05 07:25:10;;;;;;;2.87;2.60;;;;;;;19.94;42.12;95418.66;6039095;28;109005;-60
2023/05/05 07:28:15;;;;;;;2.90;2.70;;;;;;;19.85;42.56;95412.38;6038623;28;109558;-61
2023/05/05 07:31:20;;;;;;;2.47;2.27;;;;;;;19.84;42.70;95421.44;6032832;28;110163;-60
2023/05/05 07:34:24;;;;;;;3.00;2.50;;;;;;;19.79;42.64;95413.50;6034387;28;109646;-64
2023/05/05 07:37:27;;;;;;;2.50;2.30;;;;;;;19.82;42.70;95415.59;6038304;28;109416;-65
2023/05/05 07:40:30;;;;;;;3.03;2.20;;;;;;;19.80;42.44;95420.38;6038443;28;109422;-64
2023/05/05 07:43:35;;;;;;;2.50;2.30;;;;;;;19.74;42.34;95403.72;6028411;28;109649;-64
2023/05/05 07:46:41;;;;;;;2.43;2.17;;;;;;;19.78;42.37;95406.59;6037757;28;109989;-65
2023/05/05 07:49:44;;;;;;;2.97;2.73;;;;;;;19.83;42.49;95415.34;6038701;28;109077;-65
2023/05/05 07:52:47;;;;;;;2.50;2.30;;;;;;;19.82;42.49;95407.63;6038157;28;110092;-65
2023/05/05 07:56:04;;;;;;;3.07;2.27;;;;;;;19.85;42.54;95407.88;6031682;28;109113;-65
2023/05/05 07:59:08;;;;;;;2.93;2.73;;;;;;;19.89;42.45;95419.50;6041678;28;109267;-65
2023/05/05 08:02:12;;;;;;;2.43;2.20;;;;;;;19.98;42.36;95419.66;6041214;28;109066;-65
2023/05/05 08:05:16;;;;;;;2.30;2.20;;;;;;;20.08;42.16;95419.56;6037488;28;108999;-65
2023/05/05 08:08:23;;;;;;;3.70;2.73;;;;;;;20.17;42.12;95422.41;6035941;28;109263;-65
2023/05/05 08:11:27;;;;;;;2.37;2.17;;;;;;;20.25;42.07;95422.56;6041184;28;109558;-65
2023/05/05 08:14:33;;;;;;;2.20;2.10;;;;;;;20.32;42.01;95420.34;6041696;28;109345;-65
2023/05/05 08:17:47;;;;;;;3.93;1.87;;;;;;;20.39;42.02;95413.91;6030186;28;109218;-65
2023/05/05 08:20:51;;;;;;;2.40;2.00;;;;;;;20.48;42.07;95406.88;6041075;28;110238;-65
2023/05/05 08:23:54;;;;;;;2.70;2.50;;;;;;;20.49;42.08;95398.59;6041864;28;109255;-65
2023/05/05 08:26:57;;;;;;;3.03;2.83;;;;;;;20.61;41.85;95392.88;6040590;28;109214;-65
2023/05/05 08:30:03;;;;;;;3.33;3.13;;;;;;;20.62;41.71;95391.78;6031900;28;108978;-65
2023/05/05 08:33:06;;;;;;;4.77;3.93;;;;;;;20.72;41.89;95394.31;6040143;28;109982;-65
2023/05/05 08:36:10;;;;;;;3.70;3.40;;;;;;;20.77;41.58;95388.13;6040422;28;109152;-65
2023/05/05 08:39:13;;;;;;;5.33;4.90;;;;;;;20.74;41.85;95380.75;6036469;28;109365;-64
2023/05/05 08:42:16;;;;;;;4.20;3.80;;;;;;;20.82;41.80;95385.38;6035489;28;111032;-65
2023/05/05 08:45:40;;;;;;;4.77;4.13;;;;;;;20.86;41.59;95375.78;6040500;28;109424;-65
2023/05/05 08:48:45;;;;;;;4.90;4.50;;;;;;;20.92;41.70;95379.94;6041301;28;109443;-65
2023/05/05 08:51:50;;;;;;;4.97;4.50;;;;;;;21.00;41.62;95381.13;6029777;28;108980;-65
2023/05/05 08:54:57;;;;;;;4.77;4.37;;;;;;;21.01;41.31;95380.88;6040862;28;110574;-65
2023/05/05 08:58:02;;;;;;;4.20;3.90;;;;;;;21.06;41.22;95380.00;6040578;28;110351;-65
2023/05/05 09:01:07;;;;;;;4.60;4.30;;;;;;;21.03;41.66;95372.59;6040959;28;108971;-66
2023/05/05 09:04:11;;;;;;;5.20;4.80;;;;;;;21.02;41.41;95373.69;6029396;28;109084;-65
2023/05/05 09:07:14;;;;;;;4.70;4.40;;;;;;;21.06;41.48;95372.03;6039753;28;109067;-65
2023/05/05 09:10:18;;;;;;;4.87;4.47;;;;;;;21.09;41.62;95371.44;6040845;28;109544;-65
2023/05/05 09:13:21;;;;;;;4.93;4.50;;;;;;;21.09;41.43;95363.47;6036114;28;109083;-64
2023/05/05 09:16:26;;;;;;;5.53;5.03;;;;;;;21.03;41.49;95370.72;6034633;28;112388;-65
2023/05/05 09:19:29;;;;;;;5.87;5.37;;;;;;;20.96;41.61;95364.16;6040567;28;109048;-65
2023/05/05 09:22:35;;;;;;;6.27;5.67;;;;;;;;;;6040085;28;110337;-64
2023/05/05 09:25:39;;;;;;;6.67;6.07;;;;;;;20.87;41.97;95356.88;6031251;28;109035;-65
2023/05/05 09:28:52;;;;;;;7.50;6.90;;;;;;;20.86;41.63;95363.25;6040590;28;109115;-65
2023/05/05 09:32:07;;;;;;;7.20;6.60;;;;;;;20.87;41.74;95364.84;6039963;28;109135;-65
2023/05/05 09:35:11;;;;;;;7.30;6.70;;;;;;;20.93;41.78;95360.22;6039759;28;109481;-64
2023/05/05 09:38:14;;;;;;;7.57;6.97;;;;;;;20.92;42.11;95362.09;6029776;28;109229;-65
2023/05/05 09:41:36;;;;;;;6.90;6.30;;;;;;;20.94;42.01;95356.47;6040135;28;109565;-65
2023/05/05 09:44:40;;;;;;;7.37;6.77;;;;;;;20.99;42.18;95358.25;6040021;28;109221;-64
2023/05/05 09:47:45;;;;;;;6.63;6.03;;;;;;;20.95;41.88;95354.63;6033924;28;109222;-64
2023/05/05 09:50:48;;;;;;;7.13;6.53;;;;;;;20.98;42.02;95354.81;6035142;28;109060;-65
2023/05/05 09:53:52;;;;;;;7.10;6.50;;;;;;;20.97;42.13;95360.44;6040149;28;108994;-65
2023/05/05 09:56:56;;;;;;;6.70;6.13;;;;;;;21.00;42.32;95349.19;6039948;28;110070;-67
2023/05/05 10:00:00;;;;;;;7.17;6.57;;;;;;;20.99;41.70;95342.31;6029791;28;109060;-66
2023/05/05 10:03:05;;;;;;;6.30;5.80;;;;;;;20.98;42.00;95346.84;6039904;28;109040;-65
2023/05/05 10:06:08;;;;;;;6.53;6.03;;;;;;;20.78;42.19;95329.34;6038799;28;109134;-65
2023/05/05 10:09:11;;;;;;;7.20;6.60;;;;;;;20.92;41.93;95351.47;6039878;28;109039;-65
2023/05/05 10:12:15;;;;;;;7.73;7.13;;;;;;;20.91;42.32;95349.09;6030129;28;109208;-65
2023/05/05 10:15:18;;;;;;;6.37;5.87;;;;;;;20.92;42.04;95348.78;6039607;28;109995;-65
2023/05/05 10:18:24;;;;;;;6.77;6.20;;;;;;;20.93;41.70;95339.72;6038856;28;110102;-67
2023/05/05 10:21:33;;;;;;;6.40;5.90;;;;;;;20.93;41.73;95345.06;6035700;28;110488;-66
2023/05/05 10:24:39;;;;;;;7.30;6.70;;;;;;;20.93;42.19;95349.59;6034315;28;109169;-67
2023/05/05 10:27:43;;;;;;;7.43;6.80;;;;;;;;;;6040282;28;109028;-66
2023/05/05 10:30:52;;;;;;;7.13;6.53;;;;;;;20.94;42.17;95343.19;6039626;28;109205;-65
2023/05/05 10:34:03;;;;;;;7.40;6.80;;;;;;;20.92;42.11;95335.50;6028349;28;111650;-66
2023/05/05 10:37:07;;;;;;;6.80;6.30;;;;;;;20.88;42.01;95326.53;6038272;28;109172;-65
2023/05/05 10:40:10;;;;;;;6.80;6.20;;;;;;;20.87;42.41;95340.13;6039390;28;109044;-66
2023/05/05 10:43:14;;;;;;;6.83;6.23;;;;;;;20.87;42.26;95340.91;6039442;28;109224;-66
2023/05/05 10:46:17;;;;;;;7.53;6.80;;;;;;;20.84;41.81;95346.81;6028414;28;109401;-65
2023/05/05 10:49:33;;;;;;;6.53;6.03;;;;;;;20.82;41.98;95340.97;6039427;28;109058;-65
2023/05/05 10:52:41;;;;;;;7.23;6.27;;;;;;;20.80;42.02;95335.16;6039451;28;108808;-65
2023/05/05 10:55:54;;;;;;;7.13;6.53;;;;;;;20.78;42.11;95339.97;6034993;28;109570;-65
2023/05/05 10:58:58;;;;;;;8.10;7.40;;;;;;;20.78;42.06;95336.53;6034760;28;109006;-65
2023/05/05 11:02:18;;;;;;;7.23;6.53;;;;;;;20.74;41.85;95331.00;6039087;28;108756;-64
2023/05/05 11:05:23;;;;;;;6.50;5.90;;;;;;;20.74;41.83;95327.53;6039346;28;109047;-61
2023/05/05 11:08:26;;;;;;;6.63;6.13;;;;;;;20.76;41.69;95338.69;6028088;28;110785;-62
2023/05/05 11:12:03;;;;;;;6.93;6.33;;;;;;;20.75;41.84;95329.13;6038595;28;110194;-64
2023/05/05 11:15:36;;;;;;;6.70;6.10;;;;;;;20.76;41.83;95328.84;6039165;28;109064;-61
2023/05/05 11:18:43;;;;;;;6.20;5.67;;;;;;;20.73;41.79;95323.31;6033550;28;112144;-63
2023/05/05 11:22:01;;;;;;;5.30;4.90;;;;;;;20.67;41.94;95311.16;6034529;28;108710;-61
2023/05/05 11:25:39;;;;;;;5.03;4.53;;;;;;;20.70;41.83;95319.38;6038083;28;109121;-62
2023/05/05 11:29:03;;;;;;;6.43;5.83;;;;;;;20.66;41.30;95307.72;6037166;28;111772;-63
2023/05/05 11:32:14;;;;;;;5.83;5.33;;;;;;;20.65;41.63;95308.00;6027932;28;112017;-63
2023/05/05 11:35:17;;;;;;;6.63;5.87;;;;;;;20.66;41.23;95317.56;6038711;28;109443;-63
2023/05/05 11:38:26;;;;;;;5.97;5.47;;;;;;;20.61;41.26;95305.13;6038540;28;109137;-63
2023/05/05 11:42:12;;;;;;;5.27;4.87;;;;;;;20.66;41.18;95312.22;6031388;28;110253;-64
2023/05/05 11:45:22;;;;;;;5.07;4.67;;;;;;;20.60;41.06;95299.03;6037951;28;109010;-62
2023/05/05 11:48:26;;;;;;;4.60;4.23;;;;;;;20.65;41.39;95311.44;6038546;28;109099;-62
2023/05/05 11:51:29;;;;;;;5.17;4.50;;;;;;;20.61;41.08;95308.59;6038093;28;112109;-62
2023/05/05 11:54:35;;;;;;;4.37;3.97;;;;;;;20.60;41.14;95303.56;6029268;28;109061;-62
2023/05/05 11:57:38;;;;;;;4.20;3.90;;;;;;;20.61;41.22;95302.47;6038302;28;109276;-64
2023/05/05 12:00:41;;;;;;;5.20;3.80;;;;;;;20.60;41.13;95298.25;6037681;28;110509;-63
2023/05/05 12:03:44;;;;;;;4.60;4.20;;;;;;;20.59;41.28;95296.66;6033527;28;110050;-62
2023/05/05 12:06:48;;;;;;;4.20;3.90;;;;;;;20.57;40.99;95288.97;6032426;28;108910;-62
2023/05/05 12:09:53;;;;;;;4.00;3.70;;;;;;;20.57;41.42;95296.16;6037439;28;108929;-61
2023/05/05 12:12:57;;;;;;;3.93;3.63;;;;;;;20.54;41.00;95283.47;6037177;28;109726;-62
2023/05/05 12:16:08;;;;;;;4.77;4.43;;;;;;;20.55;41.12;95282.38;6027704;28;109115;-65
2023/05/05 12:19:13;;;;;;;4.20;3.90;;;;;;;20.52;41.06;95277.66;6036931;28;109038;-65
2023/05/05 12:22:21;;;;;;;3.97;3.67;;;;;;;20.52;40.88;95282.97;6037872;28;109151;-69
2023/05/05 12:25:25;;;;;;;8.33;7.13;;;;;;;20.71;42.22;95275.75;6038098;28;109087;-69
2023/05/05 12:28:43;;;;;;;8.63;7.03;;;;;;;20.76;42.14;95274.84;6027964;28;109070;-71
2023/05/05 12:31:46;;;;;;;6.47;5.87;;;;;;;20.77;42.05;95269.25;6037594;28;112536;-69
2023/05/05 12:34:53;;;;;;;6.73;6.13;;;;;;;20.77;41.92;95271.13;6037938;28;109322;-69
2023/05/05 12:37:57;;;;;;;6.90;6.20;;;;;;;20.76;42.16;95262.34;6032685;28;109209;-69
2023/05/05 12:45:27;;;;;;;7.80;7.10;;;;;;;20.68;41.24;95247.06;6013280;28;108885;-64
2023/05/05 12:48:30;;;;;;;7.47;6.87;;;;;;;20.67;41.19;95256.13;6018038;28;109066;-65
2023/05/05 12:51:35;;;;;;;7.57;6.33;;;;;;;20.61;41.25;95254.63;6008283;28;110492;-65
2023/05/05 12:54:52;;;;;;;6.60;6.00;;;;;;;20.57;41.26;95249.09;6017562;28;109542;-66
2023/05/05 12:58:00;;;;;;;6.20;5.60;;;;;;;20.55;40.88;95253.13;6017747;28;109538;-65
2023/05/05 13:01:11;;;;;;;6.93;6.30;;;;;;;20.52;40.86;95240.44;6011628;28;109013;-64
2023/05/05 13:04:15;;;;;;;8.00;7.20;;;;;;;20.55;41.04;95247.81;6017618;28;109095;-65
2023/05/05 13:07:20;;;;;;;7.13;6.53;;;;;;;20.54;40.99;95246.25;6022552;28;110420;-65
2023/05/05 13:10:23;;;;;;;7.20;6.70;;;;;;;20.48;40.94;95242.06;6040832;28;109486;-65
2023/05/05 13:13:27;;;;;;;7.33;6.73;;;;;;;20.47;41.06;95235.97;6030259;28;110136;-65
2023/05/05 13:16:32;;;;;;;6.50;6.00;;;;;;;20.50;40.90;95234.59;6040014;28;108995;-64
2023/05/05 13:19:40;;;;;;;6.20;5.60;;;;;;;20.51;40.86;95241.50;6040795;28;109084;-66
2023/05/05 13:22:44;;;;;;;6.60;6.00;;;;;;;20.42;40.99;95220.09;6040592;28;109057;-65
2023/05/05 13:25:47;;;;;;;6.30;5.80;;;;;;;20.50;40.96;95223.94;6029504;28;108820;-65
2023/05/05 13:28:50;;;;;;;8.10;7.40;;;;;;;20.48;40.81;95228.78;6040294;28;108923;-65
2023/05/05 13:31:55;;;;;;;6.10;5.60;;;;;;;20.41;40.82;95215.06;6040279;28;112256;-65
2023/05/05 13:34:58;;;;;;;7.07;6.47;;;;;;;20.48;40.78;95221.59;6034343;28;109518;-65
2023/05/05 13:38:01;;;;;;;7.53;6.93;;;;;;;20.46;40.86;95212.31;6034956;28;109772;-65
2023/05/05 13:41:05;;;;;;;7.00;6.47;;;;;;;20.42;40.67;95212.13;6040347;28;109206;-65
2023/05/05 13:44:08;;;;;;;6.60;6.00;;;;;;;20.45;40.58;95205.44;6039846;28;110132;-65
2023/05/05 13:47:12;;;;;;;7.07;6.50;;;;;;;20.47;41.17;95214.69;6029572;28;110299;-70
2023/05/05 13:50:16;;;;;;;130.67;30.93;;;;;;;20.67;43.00;95223.41;6040770;28;109219;-69
2023/05/05 13:53:20;;;;;;;289.63;48.80;;;;;;;20.74;44.78;95218.53;6039334;28;109235;-70
2023/05/05 13:56:25;;;;;;;552.60;99.00;;;;;;;20.84;45.90;95224.47;6040186;28;109210;-71
2023/05/05 13:59:28;;;;;;;379.90;65.83;;;;;;;20.69;46.02;95200.00;6029726;28;109170;-71
2023/05/05 14:02:33;;;;;;;325.03;61.20;;;;;;;20.90;46.84;95223.28;6039848;28;109126;-72
2023/05/05 14:05:41;;;;;;;315.33;55.63;;;;;;;20.90;47.30;95217.16;6040041;28;109519;-71
2023/05/05 14:08:45;;;;;;;330.27;65.53;;;;;;;20.83;47.54;95206.91;6035300;28;108828;-71
2023/05/05 14:11:48;;;;;;;168.23;39.30;;;;;;;20.91;48.39;95216.09;6033509;28;109059;-70
2023/05/05 14:14:51;;;;;;;241.53;46.50;;;;;;;20.96;47.54;95217.84;6039612;28;109380;-68
2023/05/05 14:17:56;;;;;;;182.23;40.77;;;;;;;20.94;49.63;95207.50;6038847;28;111188;-69
2023/05/05 14:21:00;;;;;;;119.70;32.03;;;;;;;20.99;50.22;95209.28;6029770;28;111369;-72
2023/05/05 14:24:03;;;;;;;141.37;35.90;;;;;;;20.99;50.88;95206.63;6038880;28;109443;-72
2023/05/05 14:27:06;;;;;;;144.77;35.73;;;;;;;20.99;51.48;95203.97;6039725;28;109243;-72